Duplessis, LA (70728)

5:24 PM CST on March 05, 2015 (GMT -0600)
Angelle Estates | Change Station
CLOSE
Current Station
Personal Weather Station
Location: Gonzales, LA
Elevation: 20 ft
Nearby Weather Stations
Active Advisory: Freeze Warning Active Notice: Record Report

Elev 20 ft 30.27 °N, 90.95 °W | Updated 2 minutes ago

Overcast
Overcast
36.0 °F
Feels Like 30 °F
N
7.4
Wind Variable Wind from NW

Today
High -- | Low -- °F
--% Chance of Precip.
Yesterday
High -- | Low -- °F
Precip. -- in
6:25 AM 6:05 PM
Full, 100% visible
Pressure 30.37 in
Visibility 10.0 miles
Clouds Overcast 9500 ft
Windchill 30 °F
Dew Point 31 °F
Humidity 82%
Rainfall in
Snow Depth Not available.
UV 0 out of 12
Pollen 3.20 out of 12
Air Quality Not available.
Flu Activity Not available.
METAR KL38 052315Z AUTO 35011G20KT 10SM OVC095 02/M02 A3037 RMK AO2 T00231020

More Conditions Fewer Conditions

Pressure 30.37 in
Visibility 10.0 miles
Clouds Overcast 9500 ft
Windchill 30 °F
Dew Point 31 °F
Humidity 82%
Rainfall in
Snow Depth Not available.
UV 0 out of 12
Pollen 3.20 out of 12
Air Quality Not available.
Flu Activity Not available.
METAR KL38 052315Z AUTO 35011G20KT 10SM OVC095 02/M02 A3037 RMK AO2 T00231020

More Conditions Fewer Conditions

10-Day Weather Forecast

Almanac

Astronomy

Mar. 05, 2015 Rise Set
Actual Time
Civil Twilight
Nautical Twilight
Astronomical Twilight
Moon
Length of Visible Light
Length of Day
Tomorrow will be .
, % of the Moon is Illuminated

Today's Extremes

State Highs State Lows

Community

WunderPhotos

Upload Photos

1,803,053 photos uploaded!

WunderBlogs® & News

Nearby

Air Quality

  Air Quality AQ Index Pollutant
Not available.

Snow Depth

Station Depth Elevation

Earthquake Activity

City Distance Mag. Time & Date
Minimum magnitude displayed is 2.5.

Coastal Water Temperatures

Place Temperature

Nearby Weather Stations

Freeze Warning
Statement as of 3:57 PM CST on March 05, 2015

... Freeze warning in effect from 9 PM this evening to 9 am CST
Friday...

The National Weather Service in New Orleans has issued a freeze
warning... which is in effect from 9 PM this evening to 9 am CST
Friday.

* Temperature... temperatures in the upper 20s and lower 30s can be
expected.

* Duration... 89 to 12 hours of freezing temperatures

* impacts... sub-freezing temperatures can damage sensitive
vegetation and are dangerous for outdoor pets.

Precautionary/preparedness actions...

A freeze warning means sub-freezing temperatures are imminent or
highly likely. These conditions will kill crops and other
sensitive vegetation.